sensor_id;sensor_type;location;lat;lon;timestamp;P1;durP1;ratioP1;P2;durP2;ratioP2
18425;SDS011;9340;48.756;9.226;2024-03-02T00:00:36;13.87;;;12.47;;
18425;SDS011;9340;48.756;9.226;2024-03-02T00:03:03;14.03;;;12.70;;
18425;SDS011;9340;48.756;9.226;2024-03-02T00:05:30;13.87;;;12.47;;
18425;SDS011;9340;48.756;9.226;2024-03-02T00:07:58;14.43;;;13.13;;
18425;SDS011;9340;48.756;9.226;2024-03-02T00:10:27;14.30;;;12.50;;
18425;SDS011;9340;48.756;9.226;2024-03-02T00:13:02;13.47;;;12.20;;
18425;SDS011;9340;48.756;9.226;2024-03-02T00:15:35;14.03;;;12.53;;
18425;SDS011;9340;48.756;9.226;2024-03-02T00:18:08;14.33;;;12.40;;
18425;SDS011;9340;48.756;9.226;2024-03-02T00:20:38;13.10;;;11.80;;
18425;SDS011;9340;48.756;9.226;2024-03-02T00:23:07;12.47;;;11.27;;
18425;SDS011;9340;48.756;9.226;2024-03-02T00:25:36;13.37;;;11.60;;
18425;SDS011;9340;48.756;9.226;2024-03-02T00:28:05;13.37;;;12.07;;
18425;SDS011;9340;48.756;9.226;2024-03-02T00:30:43;12.60;;;11.30;;
18425;SDS011;9340;48.756;9.226;2024-03-02T00:33:25;14.43;;;12.90;;
18425;SDS011;9340;48.756;9.226;2024-03-02T00:35:53;14.80;;;13.30;;
18425;SDS011;9340;48.756;9.226;2024-03-02T00:38:22;13.63;;;12.33;;
18425;SDS011;9340;48.756;9.226;2024-03-02T00:40:49;15.00;;;13.37;;
18425;SDS011;9340;48.756;9.226;2024-03-02T00:46:12;15.27;;;12.97;;
18425;SDS011;9340;48.756;9.226;2024-03-02T00:48:44;13.27;;;11.97;;
18425;SDS011;9340;48.756;9.226;2024-03-02T00:51:16;12.27;;;10.93;;
18425;SDS011;9340;48.756;9.226;2024-03-02T00:53:44;12.27;;;11.17;;
18425;SDS011;9340;48.756;9.226;2024-03-02T00:56:11;14.70;;;12.97;;
18425;SDS011;9340;48.756;9.226;2024-03-02T00:58:39;13.90;;;12.47;;
18425;SDS011;9340;48.756;9.226;2024-03-02T01:01:06;13.67;;;11.60;;
18425;SDS011;9340;48.756;9.226;2024-03-02T01:03:33;13.70;;;12.40;;
18425;SDS011;9340;48.756;9.226;2024-03-02T01:06:00;13.80;;;12.40;;
18425;SDS011;9340;48.756;9.226;2024-03-02T01:08:27;14.90;;;13.50;;
18425;SDS011;9340;48.756;9.226;2024-03-02T01:10:55;14.27;;;12.77;;
18425;SDS011;9340;48.756;9.226;2024-03-02T01:13:22;13.80;;;12.43;;
18425;SDS011;9340;48.756;9.226;2024-03-02T01:15:49;13.80;;;12.40;;
18425;SDS011;9340;48.756;9.226;2024-03-02T01:18:15;13.57;;;12.17;;
18425;SDS011;9340;48.756;9.226;2024-03-02T01:20:41;12.10;;;10.77;;
18425;SDS011;9340;48.756;9.226;2024-03-02T01:23:08;16.60;;;13.73;;
18425;SDS011;9340;48.756;9.226;2024-03-02T01:25:35;13.50;;;12.20;;
18425;SDS011;9340;48.756;9.226;2024-03-02T01:28:03;13.10;;;11.83;;
18425;SDS011;9340;48.756;9.226;2024-03-02T01:30:30;14.10;;;12.63;;
18425;SDS011;9340;48.756;9.226;2024-03-02T01:32:57;14.63;;;12.97;;
18425;SDS011;9340;48.756;9.226;2024-03-02T01:35:25;12.67;;;11.37;;
18425;SDS011;9340;48.756;9.226;2024-03-02T01:37:52;14.10;;;12.60;;
18425;SDS011;9340;48.756;9.226;2024-03-02T01:40:19;12.97;;;11.73;;
18425;SDS011;9340;48.756;9.226;2024-03-02T01:42:46;14.20;;;12.23;;
18425;SDS011;9340;48.756;9.226;2024-03-02T01:45:14;13.30;;;11.40;;
18425;SDS011;9340;48.756;9.226;2024-03-02T01:47:41;15.80;;;12.60;;
18425;SDS011;9340;48.756;9.226;2024-03-02T01:50:08;16.57;;;14.77;;
18425;SDS011;9340;48.756;9.226;2024-03-02T01:52:37;17.27;;;15.27;;
18425;SDS011;9340;48.756;9.226;2024-03-02T01:55:04;14.43;;;12.77;;
18425;SDS011;9340;48.756;9.226;2024-03-02T01:57:32;14.03;;;12.53;;
18425;SDS011;9340;48.756;9.226;2024-03-02T01:59:59;14.73;;;13.07;;
18425;SDS011;9340;48.756;9.226;2024-03-02T02:02:27;14.57;;;12.97;;
18425;SDS011;9340;48.756;9.226;2024-03-02T02:04:54;15.63;;;13.10;;
18425;SDS011;9340;48.756;9.226;2024-03-02T02:07:21;14.03;;;12.67;;
18425;SDS011;9340;48.756;9.226;2024-03-02T02:09:47;15.07;;;12.40;;
18425;SDS011;9340;48.756;9.226;2024-03-02T02:12:14;13.33;;;12.03;;
18425;SDS011;9340;48.756;9.226;2024-03-02T02:14:46;14.93;;;12.70;;
18425;SDS011;9340;48.756;9.226;2024-03-02T02:17:13;13.63;;;12.23;;
18425;SDS011;9340;48.756;9.226;2024-03-02T02:19:41;14.17;;;12.70;;
18425;SDS011;9340;48.756;9.226;2024-03-02T02:22:09;13.07;;;11.77;;
18425;SDS011;9340;48.756;9.226;2024-03-02T02:24:39;13.27;;;12.00;;
18425;SDS011;9340;48.756;9.226;2024-03-02T02:27:06;14.23;;;12.83;;
18425;SDS011;9340;48.756;9.226;2024-03-02T02:29:33;15.57;;;12.27;;
18425;SDS011;9340;48.756;9.226;2024-03-02T02:32:00;14.50;;;13.03;;
18425;SDS011;9340;48.756;9.226;2024-03-02T02:34:27;13.27;;;11.97;;
18425;SDS011;9340;48.756;9.226;2024-03-02T02:36:53;13.43;;;12.07;;
18425;SDS011;9340;48.756;9.226;2024-03-02T02:39:22;13.43;;;12.03;;
18425;SDS011;9340;48.756;9.226;2024-03-02T02:41:49;13.53;;;12.13;;
18425;SDS011;9340;48.756;9.226;2024-03-02T02:44:15;14.93;;;13.33;;
18425;SDS011;9340;48.756;9.226;2024-03-02T02:46:42;15.90;;;12.97;;
18425;SDS011;9340;48.756;9.226;2024-03-02T02:49:08;13.90;;;12.40;;
18425;SDS011;9340;48.756;9.226;2024-03-02T02:51:35;14.10;;;12.70;;
18425;SDS011;9340;48.756;9.226;2024-03-02T02:54:02;12.87;;;11.57;;
18425;SDS011;9340;48.756;9.226;2024-03-02T02:56:30;14.53;;;13.03;;
18425;SDS011;9340;48.756;9.226;2024-03-02T02:58:56;12.97;;;11.63;;
18425;SDS011;9340;48.756;9.226;2024-03-02T03:01:23;14.80;;;13.30;;
18425;SDS011;9340;48.756;9.226;2024-03-02T03:03:50;15.70;;;13.97;;
18425;SDS011;9340;48.756;9.226;2024-03-02T03:06:17;15.10;;;13.33;;
18425;SDS011;9340;48.756;9.226;2024-03-02T03:08:43;17.47;;;14.37;;
18425;SDS011;9340;48.756;9.226;2024-03-02T03:11:10;14.77;;;13.27;;
18425;SDS011;9340;48.756;9.226;2024-03-02T03:13:38;13.60;;;12.17;;
18425;SDS011;9340;48.756;9.226;2024-03-02T03:16:05;12.93;;;11.63;;
18425;SDS011;9340;48.756;9.226;2024-03-02T03:18:31;14.60;;;13.07;;
18425;SDS011;9340;48.756;9.226;2024-03-02T03:20:58;15.40;;;13.10;;
18425;SDS011;9340;48.756;9.226;2024-03-02T03:23:25;14.70;;;13.27;;
18425;SDS011;9340;48.756;9.226;2024-03-02T03:25:51;15.13;;;13.63;;
18425;SDS011;9340;48.756;9.226;2024-03-02T03:28:18;15.57;;;13.80;;
18425;SDS011;9340;48.756;9.226;2024-03-02T03:30:46;15.40;;;12.73;;
18425;SDS011;9340;48.756;9.226;2024-03-02T03:33:13;15.20;;;13.60;;
18425;SDS011;9340;48.756;9.226;2024-03-02T03:35:39;15.30;;;12.80;;
18425;SDS011;9340;48.756;9.226;2024-03-02T03:38:06;12.97;;;11.77;;
18425;SDS011;9340;48.756;9.226;2024-03-02T03:40:33;12.73;;;11.40;;
18425;SDS011;9340;48.756;9.226;2024-03-02T03:42:59;13.27;;;11.97;;
18425;SDS011;9340;48.756;9.226;2024-03-02T03:45:26;13.93;;;12.53;;
18425;SDS011;9340;48.756;9.226;2024-03-02T03:47:54;14.50;;;13.07;;
18425;SDS011;9340;48.756;9.226;2024-03-02T03:50:21;14.07;;;12.63;;
18425;SDS011;9340;48.756;9.226;2024-03-02T03:52:47;15.63;;;13.87;;
18425;SDS011;9340;48.756;9.226;2024-03-02T03:55:14;15.17;;;13.33;;
18425;SDS011;9340;48.756;9.226;2024-03-02T03:57:41;14.17;;;12.67;;
18425;SDS011;9340;48.756;9.226;2024-03-02T04:00:08;15.23;;;13.63;;
18425;SDS011;9340;48.756;9.226;2024-03-02T04:02:36;15.80;;;13.43;;
18425;SDS011;9340;48.756;9.226;2024-03-02T04:05:04;13.83;;;12.53;;
18425;SDS011;9340;48.756;9.226;2024-03-02T04:07:34;13.83;;;11.90;;
18425;SDS011;9340;48.756;9.226;2024-03-02T04:10:05;16.57;;;12.80;;
18425;SDS011;9340;48.756;9.226;2024-03-02T04:12:33;15.73;;;13.37;;
18425;SDS011;9340;48.756;9.226;2024-03-02T04:15:00;14.43;;;12.57;;
18425;SDS011;9340;48.756;9.226;2024-03-02T04:17:28;13.77;;;12.37;;
18425;SDS011;9340;48.756;9.226;2024-03-02T04:19:57;14.00;;;12.50;;
18425;SDS011;9340;48.756;9.226;2024-03-02T04:22:24;14.33;;;12.43;;
18425;SDS011;9340;48.756;9.226;2024-03-02T04:24:51;14.23;;;12.03;;
18425;SDS011;9340;48.756;9.226;2024-03-02T04:27:18;14.80;;;12.63;;
18425;SDS011;9340;48.756;9.226;2024-03-02T04:29:45;13.10;;;11.50;;
18425;SDS011;9340;48.756;9.226;2024-03-02T04:32:11;13.17;;;11.87;;
18425;SDS011;9340;48.756;9.226;2024-03-02T04:34:38;14.40;;;12.90;;
18425;SDS011;9340;48.756;9.226;2024-03-02T04:37:05;14.07;;;12.13;;
18425;SDS011;9340;48.756;9.226;2024-03-02T04:39:32;13.63;;;12.23;;
18425;SDS011;9340;48.756;9.226;2024-03-02T04:42:00;14.30;;;12.50;;
18425;SDS011;9340;48.756;9.226;2024-03-02T04:44:27;14.13;;;12.53;;
18425;SDS011;9340;48.756;9.226;2024-03-02T04:46:54;13.90;;;12.43;;
18425;SDS011;9340;48.756;9.226;2024-03-02T04:49:21;14.03;;;12.03;;
18425;SDS011;9340;48.756;9.226;2024-03-02T04:51:47;14.43;;;11.73;;
18425;SDS011;9340;48.756;9.226;2024-03-02T04:54:14;14.27;;;12.73;;
18425;SDS011;9340;48.756;9.226;2024-03-02T04:56:42;14.73;;;12.93;;
18425;SDS011;9340;48.756;9.226;2024-03-02T04:59:14;17.47;;;13.93;;
18425;SDS011;9340;48.756;9.226;2024-03-02T05:01:41;14.53;;;12.67;;
18425;SDS011;9340;48.756;9.226;2024-03-02T05:04:08;15.03;;;13.30;;
18425;SDS011;9340;48.756;9.226;2024-03-02T05:06:36;13.57;;;12.17;;
18425;SDS011;9340;48.756;9.226;2024-03-02T05:09:03;16.07;;;12.83;;
18425;SDS011;9340;48.756;9.226;2024-03-02T05:11:30;14.13;;;12.47;;
18425;SDS011;9340;48.756;9.226;2024-03-02T05:14:25;16.00;;;14.30;;
18425;SDS011;9340;48.756;9.226;2024-03-02T05:16:51;18.30;;;16.47;;
18425;SDS011;9340;48.756;9.226;2024-03-02T05:19:18;17.50;;;14.80;;
18425;SDS011;9340;48.756;9.226;2024-03-02T05:21:45;13.57;;;12.17;;
18425;SDS011;9340;48.756;9.226;2024-03-02T05:24:11;15.50;;;13.53;;
18425;SDS011;9340;48.756;9.226;2024-03-02T05:26:38;19.87;;;15.90;;
18425;SDS011;9340;48.756;9.226;2024-03-02T05:29:04;17.27;;;14.27;;
18425;SDS011;9340;48.756;9.226;2024-03-02T05:31:32;17.03;;;13.93;;
18425;SDS011;9340;48.756;9.226;2024-03-02T05:33:59;15.90;;;14.10;;
18425;SDS011;9340;48.756;9.226;2024-03-02T05:36:26;19.97;;;15.40;;
18425;SDS011;9340;48.756;9.226;2024-03-02T05:38:52;16.97;;;14.20;;
18425;SDS011;9340;48.756;9.226;2024-03-02T05:41:19;13.97;;;12.47;;
18425;SDS011;9340;48.756;9.226;2024-03-02T05:43:46;15.63;;;14.07;;
18425;SDS011;9340;48.756;9.226;2024-03-02T05:46:12;16.43;;;14.27;;
18425;SDS011;9340;48.756;9.226;2024-03-02T05:48:40;16.33;;;13.40;;
18425;SDS011;9340;48.756;9.226;2024-03-02T05:51:07;15.63;;;13.17;;
18425;SDS011;9340;48.756;9.226;2024-03-02T05:53:34;15.30;;;13.80;;
18425;SDS011;9340;48.756;9.226;2024-03-02T05:56:03;18.57;;;14.50;;
18425;SDS011;9340;48.756;9.226;2024-03-02T05:58:30;13.67;;;11.67;;
18425;SDS011;9340;48.756;9.226;2024-03-02T06:01:08;14.47;;;12.43;;
18425;SDS011;9340;48.756;9.226;2024-03-02T06:03:34;16.80;;;14.20;;
18425;SDS011;9340;48.756;9.226;2024-03-02T06:06:02;14.43;;;12.93;;
18425;SDS011;9340;48.756;9.226;2024-03-02T06:08:30;16.07;;;14.37;;
18425;SDS011;9340;48.756;9.226;2024-03-02T06:10:57;17.37;;;15.53;;
18425;SDS011;9340;48.756;9.226;2024-03-02T06:13:23;16.40;;;14.20;;
18425;SDS011;9340;48.756;9.226;2024-03-02T06:15:51;16.13;;;14.30;;
18425;SDS011;9340;48.756;9.226;2024-03-02T06:18:18;16.10;;;14.47;;
18425;SDS011;9340;48.756;9.226;2024-03-02T06:20:45;18.27;;;15.97;;
18425;SDS011;9340;48.756;9.226;2024-03-02T06:23:13;17.87;;;15.23;;
18425;SDS011;9340;48.756;9.226;2024-03-02T06:25:39;20.67;;;17.00;;
18425;SDS011;9340;48.756;9.226;2024-03-02T06:28:06;21.53;;;17.47;;
18425;SDS011;9340;48.756;9.226;2024-03-02T06:30:33;22.33;;;19.87;;
18425;SDS011;9340;48.756;9.226;2024-03-02T06:32:59;22.33;;;19.73;;
18425;SDS011;9340;48.756;9.226;2024-03-02T06:35:26;21.57;;;19.37;;
18425;SDS011;9340;48.756;9.226;2024-03-02T06:37:53;20.53;;;17.77;;
18425;SDS011;9340;48.756;9.226;2024-03-02T06:40:21;21.27;;;18.97;;
18425;SDS011;9340;48.756;9.226;2024-03-02T06:42:47;16.07;;;14.37;;
18425;SDS011;9340;48.756;9.226;2024-03-02T06:45:14;18.63;;;15.10;;
18425;SDS011;9340;48.756;9.226;2024-03-02T06:47:41;18.97;;;15.90;;
18425;SDS011;9340;48.756;9.226;2024-03-02T06:50:08;20.10;;;16.53;;
18425;SDS011;9340;48.756;9.226;2024-03-02T06:52:35;16.93;;;14.90;;
18425;SDS011;9340;48.756;9.226;2024-03-02T06:55:01;23.10;;;19.80;;
18425;SDS011;9340;48.756;9.226;2024-03-02T06:57:30;19.00;;;16.20;;
18425;SDS011;9340;48.756;9.226;2024-03-02T06:59:57;17.93;;;16.00;;
18425;SDS011;9340;48.756;9.226;2024-03-02T07:02:24;19.30;;;16.40;;
18425;SDS011;9340;48.756;9.226;2024-03-02T07:04:51;18.53;;;16.23;;
18425;SDS011;9340;48.756;9.226;2024-03-02T07:07:18;15.37;;;13.80;;
18425;SDS011;9340;48.756;9.226;2024-03-02T07:09:45;16.97;;;15.17;;
18425;SDS011;9340;48.756;9.226;2024-03-02T07:12:12;18.03;;;16.13;;
18425;SDS011;9340;48.756;9.226;2024-03-02T07:14:40;16.27;;;14.57;;
18425;SDS011;9340;48.756;9.226;2024-03-02T07:17:24;18.40;;;15.67;;
18425;SDS011;9340;48.756;9.226;2024-03-02T07:19:51;17.30;;;15.60;;
18425;SDS011;9340;48.756;9.226;2024-03-02T07:22:18;16.47;;;14.77;;
18425;SDS011;9340;48.756;9.226;2024-03-02T07:24:45;15.73;;;14.20;;
18425;SDS011;9340;48.756;9.226;2024-03-02T07:27:12;16.83;;;15.13;;
18425;SDS011;9340;48.756;9.226;2024-03-02T07:29:41;15.97;;;14.23;;
18425;SDS011;9340;48.756;9.226;2024-03-02T07:32:08;15.93;;;14.43;;
18425;SDS011;9340;48.756;9.226;2024-03-02T07:34:36;15.00;;;13.50;;
18425;SDS011;9340;48.756;9.226;2024-03-02T07:37:03;14.53;;;13.10;;
18425;SDS011;9340;48.756;9.226;2024-03-02T07:39:30;16.60;;;15.00;;
18425;SDS011;9340;48.756;9.226;2024-03-02T07:41:57;16.70;;;13.90;;
18425;SDS011;9340;48.756;9.226;2024-03-02T07:44:24;16.50;;;14.90;;
18425;SDS011;9340;48.756;9.226;2024-03-02T07:46:52;16.87;;;15.20;;
18425;SDS011;9340;48.756;9.226;2024-03-02T07:49:18;16.30;;;14.70;;
18425;SDS011;9340;48.756;9.226;2024-03-02T07:51:45;16.57;;;14.97;;
18425;SDS011;9340;48.756;9.226;2024-03-02T07:54:12;18.20;;;16.40;;
18425;SDS011;9340;48.756;9.226;2024-03-02T07:56:38;18.10;;;16.40;;
18425;SDS011;9340;48.756;9.226;2024-03-02T07:59:05;17.97;;;16.23;;
18425;SDS011;9340;48.756;9.226;2024-03-02T08:01:32;17.83;;;16.13;;
18425;SDS011;9340;48.756;9.226;2024-03-02T08:04:00;17.07;;;15.57;;
18425;SDS011;9340;48.756;9.226;2024-03-02T08:06:28;18.40;;;15.70;;
18425;SDS011;9340;48.756;9.226;2024-03-02T08:08:56;18.50;;;16.77;;
18425;SDS011;9340;48.756;9.226;2024-03-02T08:11:23;18.90;;;17.10;;
18425;SDS011;9340;48.756;9.226;2024-03-02T08:13:50;22.83;;;20.63;;
18425;SDS011;9340;48.756;9.226;2024-03-02T08:16:17;19.10;;;17.30;;
18425;SDS011;9340;48.756;9.226;2024-03-02T08:18:44;18.20;;;16.40;;
18425;SDS011;9340;48.756;9.226;2024-03-02T08:21:13;17.00;;;15.40;;
18425;SDS011;9340;48.756;9.226;2024-03-02T08:23:39;15.77;;;14.33;;
18425;SDS011;9340;48.756;9.226;2024-03-02T08:26:07;16.57;;;14.97;;
18425;SDS011;9340;48.756;9.226;2024-03-02T08:28:34;15.93;;;14.30;;
18425;SDS011;9340;48.756;9.226;2024-03-02T08:31:02;15.90;;;14.40;;
18425;SDS011;9340;48.756;9.226;2024-03-02T08:33:28;15.90;;;14.40;;
18425;SDS011;9340;48.756;9.226;2024-03-02T08:35:55;18.63;;;16.70;;
18425;SDS011;9340;48.756;9.226;2024-03-02T08:38:23;16.57;;;14.93;;
18425;SDS011;9340;48.756;9.226;2024-03-02T08:40:50;16.93;;;15.30;;
18425;SDS011;9340;48.756;9.226;2024-03-02T08:43:17;15.03;;;13.43;;
18425;SDS011;9340;48.756;9.226;2024-03-02T08:45:44;14.07;;;12.73;;
18425;SDS011;9340;48.756;9.226;2024-03-02T08:48:12;15.37;;;13.87;;
18425;SDS011;9340;48.756;9.226;2024-03-02T08:50:39;14.97;;;13.57;;
18425;SDS011;9340;48.756;9.226;2024-03-02T08:53:05;14.97;;;13.47;;
18425;SDS011;9340;48.756;9.226;2024-03-02T08:55:33;13.30;;;12.00;;
18425;SDS011;9340;48.756;9.226;2024-03-02T08:58:00;11.20;;;10.10;;
18425;SDS011;9340;48.756;9.226;2024-03-02T09:00:27;10.60;;;9.60;;
18425;SDS011;9340;48.756;9.226;2024-03-02T09:02:54;9.23;;;8.43;;
18425;SDS011;9340;48.756;9.226;2024-03-02T09:05:20;11.03;;;9.93;;
18425;SDS011;9340;48.756;9.226;2024-03-02T09:07:47;8.93;;;8.13;;
18425;SDS011;9340;48.756;9.226;2024-03-02T09:10:14;10.93;;;9.93;;
18425;SDS011;9340;48.756;9.226;2024-03-02T09:12:42;9.60;;;8.70;;
18425;SDS011;9340;48.756;9.226;2024-03-02T09:15:09;7.70;;;6.90;;
18425;SDS011;9340;48.756;9.226;2024-03-02T09:17:36;9.57;;;8.77;;
18425;SDS011;9340;48.756;9.226;2024-03-02T09:20:03;8.47;;;7.67;;
18425;SDS011;9340;48.756;9.226;2024-03-02T09:22:30;7.83;;;7.07;;
18425;SDS011;9340;48.756;9.226;2024-03-02T09:24:57;8.30;;;7.50;;
18425;SDS011;9340;48.756;9.226;2024-03-02T09:27:24;7.07;;;6.47;;
18425;SDS011;9340;48.756;9.226;2024-03-02T09:29:52;7.50;;;6.80;;
18425;SDS011;9340;48.756;9.226;2024-03-02T09:32:19;6.77;;;6.17;;
18425;SDS011;9340;48.756;9.226;2024-03-02T09:34:45;6.43;;;5.83;;
18425;SDS011;9340;48.756;9.226;2024-03-02T09:37:13;6.87;;;6.37;;
18425;SDS011;9340;48.756;9.226;2024-03-02T09:39:40;6.90;;;6.17;;
18425;SDS011;9340;48.756;9.226;2024-03-02T09:42:09;7.17;;;6.50;;
18425;SDS011;9340;48.756;9.226;2024-03-02T09:44:36;6.60;;;6.07;;
18425;SDS011;9340;48.756;9.226;2024-03-02T09:47:04;9.00;;;8.10;;
18425;SDS011;9340;48.756;9.226;2024-03-02T09:49:32;6.57;;;6.07;;
18425;SDS011;9340;48.756;9.226;2024-03-02T09:51:59;7.03;;;6.43;;
18425;SDS011;9340;48.756;9.226;2024-03-02T09:54:26;6.53;;;6.03;;
18425;SDS011;9340;48.756;9.226;2024-03-02T09:56:53;6.80;;;6.13;;
18425;SDS011;9340;48.756;9.226;2024-03-02T09:59:20;6.90;;;6.30;;
18425;SDS011;9340;48.756;9.226;2024-03-02T10:01:56;6.70;;;6.20;;
18425;SDS011;9340;48.756;9.226;2024-03-02T10:04:26;6.40;;;5.80;;
18425;SDS011;9340;48.756;9.226;2024-03-02T10:07:09;7.00;;;6.40;;
18425;SDS011;9340;48.756;9.226;2024-03-02T10:09:37;6.17;;;5.67;;
18425;SDS011;9340;48.756;9.226;2024-03-02T10:12:04;7.07;;;6.37;;
18425;SDS011;9340;48.756;9.226;2024-03-02T10:14:31;7.70;;;7.10;;
18425;SDS011;9340;48.756;9.226;2024-03-02T10:17:01;7.23;;;6.53;;
18425;SDS011;9340;48.756;9.226;2024-03-02T10:19:30;6.40;;;5.83;;
18425;SDS011;9340;48.756;9.226;2024-03-02T10:21:58;6.03;;;5.53;;
18425;SDS011;9340;48.756;9.226;2024-03-02T10:24:25;6.80;;;6.03;;
18425;SDS011;9340;48.756;9.226;2024-03-02T10:26:52;7.23;;;6.57;;
18425;SDS011;9340;48.756;9.226;2024-03-02T10:29:19;6.27;;;5.77;;
18425;SDS011;9340;48.756;9.226;2024-03-02T10:31:46;6.27;;;5.67;;
18425;SDS011;9340;48.756;9.226;2024-03-02T10:34:13;6.00;;;5.40;;
18425;SDS011;9340;48.756;9.226;2024-03-02T10:36:42;6.07;;;5.53;;
18425;SDS011;9340;48.756;9.226;2024-03-02T10:39:11;5.97;;;5.47;;
18425;SDS011;9340;48.756;9.226;2024-03-02T10:41:39;6.53;;;5.93;;
18425;SDS011;9340;48.756;9.226;2024-03-02T10:44:07;6.10;;;5.60;;
18425;SDS011;9340;48.756;9.226;2024-03-02T10:46:35;5.90;;;5.40;;
18425;SDS011;9340;48.756;9.226;2024-03-02T10:49:03;5.57;;;5.07;;
18425;SDS011;9340;48.756;9.226;2024-03-02T10:51:31;5.70;;;5.20;;
18425;SDS011;9340;48.756;9.226;2024-03-02T10:54:02;6.80;;;5.60;;
18425;SDS011;9340;48.756;9.226;2024-03-02T10:56:31;5.50;;;5.00;;
18425;SDS011;9340;48.756;9.226;2024-03-02T10:59:01;5.27;;;4.87;;
18425;SDS011;9340;48.756;9.226;2024-03-02T11:01:29;4.57;;;4.17;;
18425;SDS011;9340;48.756;9.226;2024-03-02T11:03:58;5.40;;;5.00;;
18425;SDS011;9340;48.756;9.226;2024-03-02T11:06:26;5.00;;;4.53;;
18425;SDS011;9340;48.756;9.226;2024-03-02T11:08:57;4.27;;;3.97;;
18425;SDS011;9340;48.756;9.226;2024-03-02T11:11:30;4.07;;;3.77;;
18425;SDS011;9340;48.756;9.226;2024-03-02T11:14:01;3.93;;;3.53;;
18425;SDS011;9340;48.756;9.226;2024-03-02T11:16:33;5.47;;;4.20;;
18425;SDS011;9340;48.756;9.226;2024-03-02T11:19:02;3.70;;;3.40;;
18425;SDS011;9340;48.756;9.226;2024-03-02T11:21:31;4.63;;;4.17;;
18425;SDS011;9340;48.756;9.226;2024-03-02T11:23:58;4.63;;;4.17;;
18425;SDS011;9340;48.756;9.226;2024-03-02T11:26:27;4.27;;;3.90;;
18425;SDS011;9340;48.756;9.226;2024-03-02T11:28:55;4.27;;;3.87;;
18425;SDS011;9340;48.756;9.226;2024-03-02T11:31:24;4.50;;;4.10;;
18425;SDS011;9340;48.756;9.226;2024-03-02T11:34:28;4.53;;;3.83;;
18425;SDS011;9340;48.756;9.226;2024-03-02T11:36:55;3.50;;;3.20;;
18425;SDS011;9340;48.756;9.226;2024-03-02T11:39:22;3.57;;;3.17;;
18425;SDS011;9340;48.756;9.226;2024-03-02T11:41:49;4.57;;;3.30;;
18425;SDS011;9340;48.756;9.226;2024-03-02T11:44:17;3.53;;;3.23;;
18425;SDS011;9340;48.756;9.226;2024-03-02T11:46:44;4.47;;;3.20;;
18425;SDS011;9340;48.756;9.226;2024-03-02T11:49:13;3.70;;;3.40;;
18425;SDS011;9340;48.756;9.226;2024-03-02T11:51:49;3.50;;;3.20;;
18425;SDS011;9340;48.756;9.226;2024-03-02T11:54:19;3.07;;;2.80;;
18425;SDS011;9340;48.756;9.226;2024-03-02T11:56:46;2.63;;;2.40;;
18425;SDS011;9340;48.756;9.226;2024-03-02T11:59:13;2.60;;;2.40;;
18425;SDS011;9340;48.756;9.226;2024-03-02T12:01:42;2.97;;;2.77;;
18425;SDS011;9340;48.756;9.226;2024-03-02T12:04:08;2.97;;;2.30;;
18425;SDS011;9340;48.756;9.226;2024-03-02T12:06:36;2.17;;;1.60;;
18425;SDS011;9340;48.756;9.226;2024-03-02T12:09:03;2.30;;;2.03;;
18425;SDS011;9340;48.756;9.226;2024-03-02T12:11:31;1.90;;;1.80;;
18425;SDS011;9340;48.756;9.226;2024-03-02T12:13:58;2.20;;;1.97;;
18425;SDS011;9340;48.756;9.226;2024-03-02T12:16:25;2.73;;;1.70;;
18425;SDS011;9340;48.756;9.226;2024-03-02T12:18:53;3.20;;;2.60;;
18425;SDS011;9340;48.756;9.226;2024-03-02T12:21:20;2.20;;;2.00;;
18425;SDS011;9340;48.756;9.226;2024-03-02T12:23:47;2.40;;;2.20;;
18425;SDS011;9340;48.756;9.226;2024-03-02T12:26:15;2.40;;;2.20;;
18425;SDS011;9340;48.756;9.226;2024-03-02T12:28:41;2.40;;;2.10;;
18425;SDS011;9340;48.756;9.226;2024-03-02T12:31:09;3.25;;;2.00;;
18425;SDS011;9340;48.756;9.226;2024-03-02T12:33:36;2.25;;;2.00;;
18425;SDS011;9340;48.756;9.226;2024-03-02T12:36:04;2.22;;;2.03;;
18425;SDS011;9340;48.756;9.226;2024-03-02T12:38:37;4.60;;;1.70;;
18425;SDS011;9340;48.756;9.226;2024-03-02T12:41:03;1.83;;;1.73;;
18425;SDS011;9340;48.756;9.226;2024-03-02T12:43:31;2.50;;;1.90;;
18425;SDS011;9340;48.756;9.226;2024-03-02T12:45:57;1.73;;;1.63;;
18425;SDS011;9340;48.756;9.226;2024-03-02T12:48:24;3.37;;;2.30;;
18425;SDS011;9340;48.756;9.226;2024-03-02T12:50:51;2.97;;;1.80;;
18425;SDS011;9340;48.756;9.226;2024-03-02T12:53:19;1.85;;;1.38;;
18425;SDS011;9340;48.756;9.226;2024-03-02T12:55:47;1.58;;;1.48;;
18425;SDS011;9340;48.756;9.226;2024-03-02T12:58:18;1.30;;;1.20;;
18425;SDS011;9340;48.756;9.226;2024-03-02T13:00:45;1.42;;;1.30;;
18425;SDS011;9340;48.756;9.226;2024-03-02T13:03:12;1.80;;;1.70;;
18425;SDS011;9340;48.756;9.226;2024-03-02T13:05:40;1.65;;;1.55;;
18425;SDS011;9340;48.756;9.226;2024-03-02T13:08:07;1.60;;;1.50;;
18425;SDS011;9340;48.756;9.226;2024-03-02T13:10:35;2.45;;;1.90;;
18425;SDS011;9340;48.756;9.226;2024-03-02T13:13:04;1.70;;;1.60;;
18425;SDS011;9340;48.756;9.226;2024-03-02T13:15:32;1.63;;;1.52;;
18425;SDS011;9340;48.756;9.226;2024-03-02T13:17:59;1.88;;;1.67;;
18425;SDS011;9340;48.756;9.226;2024-03-02T13:20:29;1.52;;;1.42;;
18425;SDS011;9340;48.756;9.226;2024-03-02T13:22:57;1.50;;;1.40;;
18425;SDS011;9340;48.756;9.226;2024-03-02T13:25:24;1.80;;;1.70;;
18425;SDS011;9340;48.756;9.226;2024-03-02T13:27:53;1.80;;;1.70;;
18425;SDS011;9340;48.756;9.226;2024-03-02T13:30:19;6.88;;;4.90;;
18425;SDS011;9340;48.756;9.226;2024-03-02T13:32:46;14.27;;;11.07;;
18425;SDS011;9340;48.756;9.226;2024-03-02T13:35:13;2.60;;;2.35;;
18425;SDS011;9340;48.756;9.226;2024-03-02T13:37:39;2.17;;;1.98;;
18425;SDS011;9340;48.756;9.226;2024-03-02T13:40:07;2.08;;;1.73;;
18425;SDS011;9340;48.756;9.226;2024-03-02T13:42:38;7.40;;;6.13;;
18425;SDS011;9340;48.756;9.226;2024-03-02T13:45:06;2.60;;;2.40;;
18425;SDS011;9340;48.756;9.226;2024-03-02T13:47:33;1.75;;;1.60;;
18425;SDS011;9340;48.756;9.226;2024-03-02T13:50:00;1.60;;;1.50;;
18425;SDS011;9340;48.756;9.226;2024-03-02T13:52:27;2.28;;;2.08;;
18425;SDS011;9340;48.756;9.226;2024-03-02T13:54:55;1.95;;;1.60;;
18425;SDS011;9340;48.756;9.226;2024-03-02T13:57:21;2.22;;;2.03;;
18425;SDS011;9340;48.756;9.226;2024-03-02T13:59:48;2.30;;;2.10;;
18425;SDS011;9340;48.756;9.226;2024-03-02T14:02:18;1.80;;;1.70;;
18425;SDS011;9340;48.756;9.226;2024-03-02T14:04:45;1.70;;;1.52;;
18425;SDS011;9340;48.756;9.226;2024-03-02T14:07:14;2.08;;;1.88;;
18425;SDS011;9340;48.756;9.226;2024-03-02T14:09:41;1.70;;;1.60;;
18425;SDS011;9340;48.756;9.226;2024-03-02T14:12:08;1.90;;;1.80;;
18425;SDS011;9340;48.756;9.226;2024-03-02T14:14:38;1.48;;;1.38;;
18425;SDS011;9340;48.756;9.226;2024-03-02T14:17:05;1.48;;;1.30;;
18425;SDS011;9340;48.756;9.226;2024-03-02T14:19:36;2.55;;;1.67;;
18425;SDS011;9340;48.756;9.226;2024-03-02T14:22:03;2.03;;;1.60;;
18425;SDS011;9340;48.756;9.226;2024-03-02T14:24:30;1.48;;;1.38;;
18425;SDS011;9340;48.756;9.226;2024-03-02T14:26:57;2.22;;;1.48;;
18425;SDS011;9340;48.756;9.226;2024-03-02T14:29:26;2.22;;;1.10;;
18425;SDS011;9340;48.756;9.226;2024-03-02T14:31:53;2.47;;;1.50;;
18425;SDS011;9340;48.756;9.226;2024-03-02T14:34:20;1.50;;;1.40;;
18425;SDS011;9340;48.756;9.226;2024-03-02T14:36:48;2.47;;;1.30;;
18425;SDS011;9340;48.756;9.226;2024-03-02T14:39:15;1.40;;;1.30;;
18425;SDS011;9340;48.756;9.226;2024-03-02T14:41:43;1.63;;;1.30;;
18425;SDS011;9340;48.756;9.226;2024-03-02T14:44:10;1.45;;;1.35;;
18425;SDS011;9340;48.756;9.226;2024-03-02T14:46:36;1.33;;;1.23;;
18425;SDS011;9340;48.756;9.226;2024-03-02T14:49:03;1.25;;;1.15;;
18425;SDS011;9340;48.756;9.226;2024-03-02T14:51:30;1.70;;;1.20;;